TimeCST,TemperatureF,Dew PointF,Humidity,Sea Level PressureIn,VisibilityMPH,Wind Direction,Wind SpeedMPH,Gust SpeedMPH,PrecipitationIn,Events,Conditions,WindDirDegrees,DateUTC
12:53 AM,32.0,23.0,69,30.18,10.0,NNE,11.5,-,N/A,,Clear,30,2013-01-24 06:53:00
1:53 AM,30.0,21.9,72,30.17,10.0,NE,10.4,-,N/A,,Clear,40,2013-01-24 07:53:00
2:53 AM,26.1,21.0,81,30.18,10.0,NNE,10.4,-,N/A,,Clear,20,2013-01-24 08:53:00
3:53 AM,25.0,19.9,81,30.20,10.0,North,8.1,-,N/A,,Clear,350,2013-01-24 09:53:00
4:53 AM,25.0,19.9,81,30.22,10.0,North,10.4,-,N/A,,Clear,350,2013-01-24 10:53:00
5:13 AM,24.8,19.4,80,30.24,10.0,North,8.1,-,N/A,,Mostly Cloudy,360,2013-01-24 11:13:00
5:53 AM,24.1,19.9,84,30.23,10.0,North,10.4,-,N/A,,Mostly Cloudy,10,2013-01-24 11:53:00
6:53 AM,25.0,19.9,81,30.23,10.0,NNE,9.2,-,N/A,,Overcast,30,2013-01-24 12:53:00
7:53 AM,25.0,19.0,78,30.24,10.0,NE,4.6,-,N/A,,Overcast,50,2013-01-24 13:53:00
8:20 AM,24.8,19.4,80,30.22,10.0,NNE,4.6,-,N/A,,Overcast,30,2013-01-24 14:20:00
8:53 AM,25.0,19.9,81,30.24,10.0,NE,5.8,-,N/A,,Overcast,50,2013-01-24 14:53:00
9:16 AM,24.8,19.4,80,30.22,9.0,NE,6.9,-,N/A,,Overcast,40,2013-01-24 15:16:00
9:53 AM,25.0,21.0,85,30.24,6.0,ENE,3.5,-,N/A,,Overcast,70,2013-01-24 15:53:00
10:53 AM,25.0,21.9,88,30.27,5.0,Calm,Calm,-,N/A,,Overcast,0,2013-01-24 16:53:00
11:53 AM,27.0,21.9,81,30.24,9.0,ESE,5.8,-,N/A,,Overcast,110,2013-01-24 17:53:00
12:53 PM,28.0,23.0,81,30.20,10.0,ENE,3.5,-,N/A,,Overcast,60,2013-01-24 18:53:00
1:53 PM,30.0,24.1,79,30.14,10.0,Calm,Calm,-,N/A,,Overcast,0,2013-01-24 19:53:00
2:08 PM,30.2,24.8,80,30.10,10.0,Calm,Calm,-,N/A,,Overcast,0,2013-01-24 20:08:00
2:50 PM,32.0,24.8,75,30.06,10.0,SSE,4.6,-,N/A,,Scattered Clouds,150,2013-01-24 20:50:00
2:53 PM,33.1,24.1,70,30.10,10.0,SSE,6.9,-,N/A,,Partly Cloudy,160,2013-01-24 20:53:00
3:53 PM,32.0,24.1,73,30.08,10.0,South,5.8,-,N/A,,Clear,170,2013-01-24 21:53:00
4:53 PM,35.1,26.1,70,30.09,10.0,South,3.5,-,N/A,,Clear,190,2013-01-24 22:53:00
5:53 PM,34.0,24.1,67,30.06,10.0,SSE,5.8,-,N/A,,Clear,150,2013-01-24 23:53:00
6:53 PM,32.0,24.1,73,30.08,10.0,SE,4.6,-,N/A,,Clear,130,2013-01-25 00:53:00
7:53 PM,32.0,24.1,73,30.08,10.0,Calm,Calm,-,N/A,,Clear,0,2013-01-25 01:53:00
8:53 PM,30.9,24.1,76,30.09,10.0,SE,3.5,-,N/A,,Clear,140,2013-01-25 02:53:00
9:53 PM,28.0,21.9,78,30.09,10.0,SSE,3.5,-,N/A,,Clear,150,2013-01-25 03:53:00
10:53 PM,28.0,21.9,78,30.11,10.0,Calm,Calm,-,N/A,,Clear,0,2013-01-25 04:53:00
11:53 PM,28.0,23.0,81,30.13,10.0,NNE,3.5,-,N/A,,Clear,20,2013-01-25 05:53:00